^^
Saratoga-Weather Station Historical Data
 
Daily Summary for April 21, 2019 Units:  English    Metric   Both
Daily Weekly Monthly Yearly Custom

Warning: Division by zero in /home/content/52/6544852/html/fgcweather/WU-History-inc.php on line 1269
  Current: High: Low: Average:
Temperature: 51.6 °F 55.0 °F 51.6 °F 53.2 °F
Dew Point: 50.2 °F 51.8 °F 50.2 °F 51.1 °F
Humidity: 95% 95% 88% 93%
Wind Speed: 0.0mph 0.0mph 0.0mph 0mph
Wind Gust: 0.0mph 0.0mph - -
Wind Calm - - North
Pressure: 29.99 in 30.01 in 29.99 in -
Precipitation: 0.00 in      
Historical Graphs
 
 
Tabular Data for April 21, 2019
Time Temperature Dew Point Pressure Wind Wind Speed Wind Gust Humidity Rainfall Rate (Hourly) solar
00:04 55.0 °F 51.8 °F 30.00 in Calm     89% 0.00 in 0.00 W/m2
00:09 54.9 °F 51.4 °F 30.00 in Calm     88% 0.00 in 0.00 W/m2
00:14 54.9 °F 51.6 °F 30.01 in Calm     89% 0.00 in 0.00 W/m2
00:19 54.7 °F 51.4 °F 30.01 in Calm     89% 0.00 in 0.00 W/m2
00:23 54.5 °F 51.3 °F 30.01 in Calm     89% 0.00 in 0.00 W/m2
00:29 54.3 °F 51.4 °F 30.01 in Calm     90% 0.00 in 0.00 W/m2
00:34 54.1 °F 51.3 °F 30.01 in Calm     90% 0.00 in 0.00 W/m2
00:39 54.0 °F 51.4 °F 30.01 in Calm     91% 0.00 in 0.00 W/m2
00:44 54.0 °F 51.4 °F 30.01 in Calm     91% 0.00 in 0.00 W/m2
00:49 54.0 °F 51.4 °F 30.01 in Calm     91% 0.00 in 0.00 W/m2
00:54 53.8 °F 51.4 °F 30.01 in Calm     92% 0.00 in 0.00 W/m2
00:59 53.8 °F 51.4 °F 30.01 in Calm     92% 0.00 in 0.00 W/m2
01:04 53.6 °F 51.3 °F 30.01 in Calm     92% 0.00 in 0.00 W/m2
01:09 53.6 °F 51.6 °F 30.01 in Calm     93% 0.00 in 0.00 W/m2
01:14 53.4 °F 51.4 °F 30.01 in Calm     93% 0.00 in 0.00 W/m2
01:19 53.4 °F 51.4 °F 30.01 in Calm     93% 0.00 in 0.00 W/m2
01:24 53.2 °F 51.3 °F 30.01 in Calm     93% 0.00 in 0.00 W/m2
01:29 53.1 °F 51.1 °F 30.01 in Calm     93% 0.00 in 0.00 W/m2
01:34 52.9 °F 50.9 °F 30.01 in Calm     93% 0.00 in 0.00 W/m2
01:39 52.9 °F 51.3 °F 30.01 in Calm     94% 0.00 in 0.00 W/m2
01:43 52.5 °F 50.5 °F 30.01 in Calm     93% 0.00 in 0.00 W/m2
01:49 52.5 °F 50.9 °F 30.01 in Calm     94% 0.00 in 0.00 W/m2
01:54 52.5 °F 50.9 °F 30.01 in Calm     94% 0.00 in 0.00 W/m2
01:58 52.3 °F 50.7 °F 30.00 in Calm     94% 0.00 in 0.00 W/m2
02:03 52.3 °F 50.7 °F 30.00 in Calm     94% 0.00 in 0.00 W/m2
02:08 52.3 °F 50.9 °F 30.00 in Calm     95% 0.00 in 0.00 W/m2
02:13 52.3 °F 50.7 °F 30.00 in Calm     94% 0.00 in 0.00 W/m2
02:17 52.2 °F 50.7 °F 30.00 in Calm     95% 0.00 in 0.00 W/m2
02:23 52.2 °F 50.7 °F 30.00 in Calm     95% 0.00 in 0.00 W/m2
02:28 52.0 °F 50.5 °F 30.00 in Calm     95% 0.00 in 0.00 W/m2
02:32 52.0 °F 50.5 °F 30.00 in Calm     95% 0.00 in 0.00 W/m2
02:37 51.8 °F 50.4 °F 30.00 in Calm     95% 0.00 in 0.00 W/m2
02:42 51.6 °F 50.2 °F 29.99 in Calm     95% 0.00 in 0.00 W/m2
02:49 51.6 °F 50.2 °F 29.99 in Calm     95% 0.00 in 0.00 W/m2
Flagler Gun & Archery Club Weather
Compliments of Weather Underground - 2.5 mb